sensor_id;sensor_type;location;lat;lon;timestamp;P1;durP1;ratioP1;P2;durP2;ratioP2
38117;SDS011;23928;47.562;7.508;2023-04-29T00:00:50;7.10;;;5.23;;
38117;SDS011;23928;47.562;7.508;2023-04-29T00:03:16;7.23;;;5.60;;
38117;SDS011;23928;47.562;7.508;2023-04-29T00:05:42;8.90;;;5.30;;
38117;SDS011;23928;47.562;7.508;2023-04-29T00:08:08;6.93;;;5.67;;
38117;SDS011;23928;47.562;7.508;2023-04-29T00:10:34;5.87;;;5.13;;
38117;SDS011;23928;47.562;7.508;2023-04-29T00:13:00;7.97;;;5.27;;
38117;SDS011;23928;47.562;7.508;2023-04-29T00:15:26;7.83;;;6.17;;
38117;SDS011;23928;47.562;7.508;2023-04-29T00:17:52;8.03;;;6.03;;
38117;SDS011;23928;47.562;7.508;2023-04-29T00:20:17;5.60;;;4.97;;
38117;SDS011;23928;47.562;7.508;2023-04-29T00:22:43;6.73;;;4.80;;
38117;SDS011;23928;47.562;7.508;2023-04-29T00:25:09;5.97;;;5.37;;
38117;SDS011;23928;47.562;7.508;2023-04-29T00:27:34;7.57;;;5.77;;
38117;SDS011;23928;47.562;7.508;2023-04-29T00:30:00;10.80;;;6.93;;
38117;SDS011;23928;47.562;7.508;2023-04-29T00:32:25;9.90;;;6.67;;
38117;SDS011;23928;47.562;7.508;2023-04-29T00:34:51;9.73;;;6.27;;
38117;SDS011;23928;47.562;7.508;2023-04-29T00:37:17;50.57;;;8.60;;
38117;SDS011;23928;47.562;7.508;2023-04-29T00:39:43;6.57;;;5.50;;
38117;SDS011;23928;47.562;7.508;2023-04-29T00:42:08;7.90;;;5.40;;
38117;SDS011;23928;47.562;7.508;2023-04-29T00:44:35;7.83;;;5.60;;
38117;SDS011;23928;47.562;7.508;2023-04-29T00:47:00;13.03;;;7.10;;
38117;SDS011;23928;47.562;7.508;2023-04-29T00:49:26;12.77;;;7.13;;
38117;SDS011;23928;47.562;7.508;2023-04-29T00:51:52;8.53;;;5.47;;
38117;SDS011;23928;47.562;7.508;2023-04-29T00:54:20;6.60;;;5.13;;
38117;SDS011;23928;47.562;7.508;2023-04-29T00:56:46;14.93;;;6.13;;
38117;SDS011;23928;47.562;7.508;2023-04-29T00:59:12;8.10;;;5.37;;
38117;SDS011;23928;47.562;7.508;2023-04-29T01:01:40;7.73;;;5.20;;
38117;SDS011;23928;47.562;7.508;2023-04-29T01:04:06;6.80;;;5.20;;
38117;SDS011;23928;47.562;7.508;2023-04-29T01:06:39;5.73;;;5.10;;
38117;SDS011;23928;47.562;7.508;2023-04-29T01:12:05;5.30;;;4.80;;
38117;SDS011;23928;47.562;7.508;2023-04-29T01:14:46;7.47;;;6.20;;
38117;SDS011;23928;47.562;7.508;2023-04-29T01:17:18;8.97;;;6.80;;
38117;SDS011;23928;47.562;7.508;2023-04-29T01:19:49;7.23;;;5.13;;
38117;SDS011;23928;47.562;7.508;2023-04-29T01:22:19;6.33;;;5.37;;
38117;SDS011;23928;47.562;7.508;2023-04-29T01:24:46;8.23;;;5.87;;
38117;SDS011;23928;47.562;7.508;2023-04-29T01:33:19;6.93;;;6.23;;
38117;SDS011;23928;47.562;7.508;2023-04-29T01:36:03;7.57;;;6.77;;
38117;SDS011;23928;47.562;7.508;2023-04-29T01:39:01;7.03;;;6.30;;
38117;SDS011;23928;47.562;7.508;2023-04-29T01:41:43;7.37;;;6.20;;
38117;SDS011;23928;47.562;7.508;2023-04-29T01:44:14;8.03;;;6.73;;
38117;SDS011;23928;47.562;7.508;2023-04-29T01:46:43;6.50;;;5.70;;
38117;SDS011;23928;47.562;7.508;2023-04-29T01:49:14;8.43;;;5.40;;
38117;SDS011;23928;47.562;7.508;2023-04-29T01:51:39;6.37;;;5.70;;
38117;SDS011;23928;47.562;7.508;2023-04-29T01:54:05;7.90;;;6.73;;
38117;SDS011;23928;47.562;7.508;2023-04-29T01:56:31;7.60;;;6.10;;
38117;SDS011;23928;47.562;7.508;2023-04-29T01:58:56;8.67;;;7.77;;
38117;SDS011;23928;47.562;7.508;2023-04-29T02:01:22;8.77;;;6.97;;
38117;SDS011;23928;47.562;7.508;2023-04-29T02:03:48;8.30;;;6.83;;
38117;SDS011;23928;47.562;7.508;2023-04-29T02:06:13;7.27;;;6.23;;
38117;SDS011;23928;47.562;7.508;2023-04-29T02:08:39;9.47;;;7.17;;
38117;SDS011;23928;47.562;7.508;2023-04-29T02:11:05;7.47;;;6.27;;
38117;SDS011;23928;47.562;7.508;2023-04-29T02:13:30;9.13;;;6.50;;
38117;SDS011;23928;47.562;7.508;2023-04-29T02:15:56;8.37;;;6.50;;
38117;SDS011;23928;47.562;7.508;2023-04-29T02:18:22;7.60;;;6.20;;
38117;SDS011;23928;47.562;7.508;2023-04-29T02:20:47;8.03;;;6.57;;
38117;SDS011;23928;47.562;7.508;2023-04-29T02:23:14;7.50;;;6.43;;
38117;SDS011;23928;47.562;7.508;2023-04-29T02:25:40;6.47;;;5.83;;
38117;SDS011;23928;47.562;7.508;2023-04-29T02:28:06;6.90;;;5.90;;
38117;SDS011;23928;47.562;7.508;2023-04-29T02:30:31;6.93;;;5.70;;
38117;SDS011;23928;47.562;7.508;2023-04-29T02:32:57;6.63;;;5.60;;
38117;SDS011;23928;47.562;7.508;2023-04-29T02:35:22;4.90;;;4.50;;
38117;SDS011;23928;47.562;7.508;2023-04-29T02:37:48;4.27;;;3.97;;
38117;SDS011;23928;47.562;7.508;2023-04-29T02:40:13;4.13;;;3.73;;
38117;SDS011;23928;47.562;7.508;2023-04-29T02:42:39;4.63;;;4.17;;
38117;SDS011;23928;47.562;7.508;2023-04-29T02:45:05;4.60;;;4.20;;
38117;SDS011;23928;47.562;7.508;2023-04-29T02:47:31;4.47;;;4.07;;
38117;SDS011;23928;47.562;7.508;2023-04-29T02:49:57;4.30;;;3.77;;
38117;SDS011;23928;47.562;7.508;2023-04-29T02:52:23;4.20;;;3.87;;
38117;SDS011;23928;47.562;7.508;2023-04-29T02:54:48;4.47;;;4.13;;
38117;SDS011;23928;47.562;7.508;2023-04-29T02:57:14;5.33;;;3.90;;
38117;SDS011;23928;47.562;7.508;2023-04-29T02:59:39;4.23;;;3.23;;
38117;SDS011;23928;47.562;7.508;2023-04-29T03:02:05;3.50;;;3.30;;
38117;SDS011;23928;47.562;7.508;2023-04-29T03:04:31;4.20;;;3.80;;
38117;SDS011;23928;47.562;7.508;2023-04-29T03:06:56;3.60;;;3.30;;
38117;SDS011;23928;47.562;7.508;2023-04-29T03:09:22;3.70;;;3.40;;
38117;SDS011;23928;47.562;7.508;2023-04-29T03:11:48;3.10;;;2.87;;
38117;SDS011;23928;47.562;7.508;2023-04-29T03:14:14;3.37;;;3.07;;
38117;SDS011;23928;47.562;7.508;2023-04-29T03:16:40;3.17;;;2.93;;
38117;SDS011;23928;47.562;7.508;2023-04-29T03:19:05;2.73;;;2.53;;
38117;SDS011;23928;47.562;7.508;2023-04-29T03:21:31;3.27;;;2.97;;
38117;SDS011;23928;47.562;7.508;2023-04-29T03:23:56;2.80;;;2.60;;
38117;SDS011;23928;47.562;7.508;2023-04-29T03:26:22;2.60;;;2.40;;
38117;SDS011;23928;47.562;7.508;2023-04-29T03:28:49;2.90;;;2.70;;
38117;SDS011;23928;47.562;7.508;2023-04-29T03:31:14;3.03;;;2.83;;
38117;SDS011;23928;47.562;7.508;2023-04-29T03:33:41;2.80;;;2.60;;
38117;SDS011;23928;47.562;7.508;2023-04-29T03:36:06;3.77;;;3.07;;
38117;SDS011;23928;47.562;7.508;2023-04-29T03:38:32;2.87;;;2.67;;
38117;SDS011;23928;47.562;7.508;2023-04-29T03:40:58;3.30;;;3.00;;
38117;SDS011;23928;47.562;7.508;2023-04-29T03:43:24;3.50;;;3.00;;
38117;SDS011;23928;47.562;7.508;2023-04-29T03:45:50;2.67;;;2.47;;
38117;SDS011;23928;47.562;7.508;2023-04-29T03:48:16;2.60;;;2.40;;
38117;SDS011;23928;47.562;7.508;2023-04-29T03:50:42;33.03;;;4.43;;
38117;SDS011;23928;47.562;7.508;2023-04-29T03:53:08;3.43;;;2.87;;
38117;SDS011;23928;47.562;7.508;2023-04-29T03:55:33;3.37;;;3.07;;
38117;SDS011;23928;47.562;7.508;2023-04-29T03:57:59;4.43;;;3.33;;
38117;SDS011;23928;47.562;7.508;2023-04-29T04:00:24;5.27;;;3.53;;
38117;SDS011;23928;47.562;7.508;2023-04-29T04:02:50;2.33;;;2.23;;
38117;SDS011;23928;47.562;7.508;2023-04-29T04:05:16;2.73;;;2.53;;
38117;SDS011;23928;47.562;7.508;2023-04-29T04:07:46;2.67;;;2.40;;
38117;SDS011;23928;47.562;7.508;2023-04-29T04:10:12;5.20;;;2.50;;
38117;SDS011;23928;47.562;7.508;2023-04-29T04:12:37;2.90;;;2.70;;
38117;SDS011;23928;47.562;7.508;2023-04-29T04:15:03;2.20;;;2.00;;
38117;SDS011;23928;47.562;7.508;2023-04-29T04:17:29;1.93;;;1.80;;
38117;SDS011;23928;47.562;7.508;2023-04-29T04:19:54;1.90;;;1.57;;
38117;SDS011;23928;47.562;7.508;2023-04-29T04:22:20;2.60;;;2.40;;
38117;SDS011;23928;47.562;7.508;2023-04-29T04:24:46;2.80;;;2.60;;
38117;SDS011;23928;47.562;7.508;2023-04-29T04:27:11;2.20;;;1.93;;
38117;SDS011;23928;47.562;7.508;2023-04-29T04:29:37;2.23;;;1.97;;
38117;SDS011;23928;47.562;7.508;2023-04-29T04:32:03;4.17;;;3.30;;
38117;SDS011;23928;47.562;7.508;2023-04-29T04:34:29;8.97;;;4.70;;
38117;SDS011;23928;47.562;7.508;2023-04-29T04:36:55;5.40;;;3.40;;
38117;SDS011;23928;47.562;7.508;2023-04-29T04:39:20;4.73;;;3.33;;
38117;SDS011;23928;47.562;7.508;2023-04-29T04:41:46;5.43;;;3.47;;
38117;SDS011;23928;47.562;7.508;2023-04-29T04:44:11;6.70;;;3.53;;
38117;SDS011;23928;47.562;7.508;2023-04-29T04:46:38;4.03;;;2.93;;
38117;SDS011;23928;47.562;7.508;2023-04-29T04:49:03;3.50;;;3.20;;
38117;SDS011;23928;47.562;7.508;2023-04-29T04:51:29;3.27;;;2.63;;
38117;SDS011;23928;47.562;7.508;2023-04-29T04:53:55;9.43;;;2.80;;
38117;SDS011;23928;47.562;7.508;2023-04-29T04:56:21;3.37;;;2.43;;
38117;SDS011;23928;47.562;7.508;2023-04-29T04:58:46;3.50;;;2.90;;
38117;SDS011;23928;47.562;7.508;2023-04-29T05:01:12;4.97;;;2.97;;
38117;SDS011;23928;47.562;7.508;2023-04-29T05:03:37;3.47;;;2.50;;
38117;SDS011;23928;47.562;7.508;2023-04-29T05:06:03;2.57;;;2.37;;
38117;SDS011;23928;47.562;7.508;2023-04-29T05:08:28;2.60;;;2.40;;
38117;SDS011;23928;47.562;7.508;2023-04-29T05:10:54;2.67;;;2.40;;
38117;SDS011;23928;47.562;7.508;2023-04-29T05:13:20;2.33;;;2.13;;
38117;SDS011;23928;47.562;7.508;2023-04-29T05:15:46;2.20;;;2.00;;
38117;SDS011;23928;47.562;7.508;2023-04-29T05:18:12;2.20;;;2.03;;
38117;SDS011;23928;47.562;7.508;2023-04-29T05:20:37;2.83;;;2.63;;
38117;SDS011;23928;47.562;7.508;2023-04-29T05:23:03;4.93;;;3.07;;
38117;SDS011;23928;47.562;7.508;2023-04-29T05:25:28;3.03;;;2.73;;
38117;SDS011;23928;47.562;7.508;2023-04-29T05:27:54;3.40;;;3.10;;
38117;SDS011;23928;47.562;7.508;2023-04-29T05:30:20;4.00;;;3.30;;
38117;SDS011;23928;47.562;7.508;2023-04-29T05:32:46;21.47;;;4.03;;
38117;SDS011;23928;47.562;7.508;2023-04-29T05:35:15;3.57;;;3.23;;
38117;SDS011;23928;47.562;7.508;2023-04-29T05:37:41;4.10;;;3.67;;
38117;SDS011;23928;47.562;7.508;2023-04-29T05:40:06;3.80;;;3.50;;
38117;SDS011;23928;47.562;7.508;2023-04-29T05:42:33;4.33;;;3.80;;
38117;SDS011;23928;47.562;7.508;2023-04-29T05:44:59;7.70;;;3.13;;
38117;SDS011;23928;47.562;7.508;2023-04-29T05:47:24;14.10;;;4.07;;
38117;SDS011;23928;47.562;7.508;2023-04-29T05:49:50;8.03;;;4.20;;
38117;SDS011;23928;47.562;7.508;2023-04-29T05:52:16;10.27;;;4.30;;
38117;SDS011;23928;47.562;7.508;2023-04-29T05:54:41;11.80;;;4.60;;
38117;SDS011;23928;47.562;7.508;2023-04-29T05:57:07;11.10;;;5.03;;
38117;SDS011;23928;47.562;7.508;2023-04-29T05:59:32;4.97;;;4.47;;
38117;SDS011;23928;47.562;7.508;2023-04-29T06:01:58;6.47;;;3.53;;
38117;SDS011;23928;47.562;7.508;2023-04-29T06:04:25;7.73;;;4.47;;
38117;SDS011;23928;47.562;7.508;2023-04-29T06:06:51;11.33;;;4.03;;
38117;SDS011;23928;47.562;7.508;2023-04-29T06:09:18;18.47;;;4.20;;
38117;SDS011;23928;47.562;7.508;2023-04-29T06:11:44;9.37;;;4.20;;
38117;SDS011;23928;47.562;7.508;2023-04-29T06:14:13;4.00;;;3.60;;
38117;SDS011;23928;47.562;7.508;2023-04-29T06:16:38;5.67;;;4.10;;
38117;SDS011;23928;47.562;7.508;2023-04-29T06:19:04;4.93;;;4.40;;
38117;SDS011;23928;47.562;7.508;2023-04-29T06:21:30;4.10;;;3.63;;
38117;SDS011;23928;47.562;7.508;2023-04-29T06:23:56;5.30;;;4.33;;
38117;SDS011;23928;47.562;7.508;2023-04-29T06:26:21;4.53;;;3.83;;
38117;SDS011;23928;47.562;7.508;2023-04-29T06:28:47;4.00;;;3.70;;
38117;SDS011;23928;47.562;7.508;2023-04-29T06:31:13;4.17;;;3.77;;
38117;SDS011;23928;47.562;7.508;2023-04-29T06:33:39;4.07;;;3.67;;
38117;SDS011;23928;47.562;7.508;2023-04-29T06:36:05;3.87;;;3.57;;
38117;SDS011;23928;47.562;7.508;2023-04-29T06:38:30;5.03;;;4.20;;
38117;SDS011;23928;47.562;7.508;2023-04-29T06:40:56;9.50;;;8.13;;
38117;SDS011;23928;47.562;7.508;2023-04-29T06:43:25;7.47;;;5.00;;
38117;SDS011;23928;47.562;7.508;2023-04-29T06:45:51;5.03;;;4.53;;
38117;SDS011;23928;47.562;7.508;2023-04-29T06:48:16;4.53;;;4.10;;
38117;SDS011;23928;47.562;7.508;2023-04-29T06:50:52;4.93;;;4.53;;
38117;SDS011;23928;47.562;7.508;2023-04-29T06:53:18;6.20;;;4.50;;
38117;SDS011;23928;47.562;7.508;2023-04-29T06:55:44;5.33;;;4.83;;
38117;SDS011;23928;47.562;7.508;2023-04-29T06:58:11;7.47;;;5.47;;
38117;SDS011;23928;47.562;7.508;2023-04-29T07:00:37;5.27;;;4.77;;
38117;SDS011;23928;47.562;7.508;2023-04-29T07:03:03;6.23;;;5.33;;
38117;SDS011;23928;47.562;7.508;2023-04-29T07:05:29;7.80;;;6.33;;
38117;SDS011;23928;47.562;7.508;2023-04-29T07:07:54;6.43;;;5.83;;
38117;SDS011;23928;47.562;7.508;2023-04-29T07:10:20;6.47;;;5.87;;
38117;SDS011;23928;47.562;7.508;2023-04-29T07:12:45;9.03;;;7.70;;
38117;SDS011;23928;47.562;7.508;2023-04-29T07:15:11;7.47;;;6.67;;
38117;SDS011;23928;47.562;7.508;2023-04-29T07:17:36;11.53;;;7.73;;
38117;SDS011;23928;47.562;7.508;2023-04-29T07:20:02;10.17;;;7.30;;
38117;SDS011;23928;47.562;7.508;2023-04-29T07:22:29;10.00;;;7.43;;
38117;SDS011;23928;47.562;7.508;2023-04-29T07:24:55;11.40;;;9.63;;
38117;SDS011;23928;47.562;7.508;2023-04-29T07:27:21;11.40;;;8.77;;
38117;SDS011;23928;47.562;7.508;2023-04-29T07:29:47;9.10;;;7.90;;
38117;SDS011;23928;47.562;7.508;2023-04-29T07:32:14;13.87;;;9.47;;
38117;SDS011;23928;47.562;7.508;2023-04-29T07:34:40;13.70;;;10.13;;
38117;SDS011;23928;47.562;7.508;2023-04-29T07:37:05;11.67;;;9.63;;
38117;SDS011;23928;47.562;7.508;2023-04-29T07:39:31;15.10;;;10.30;;
38117;SDS011;23928;47.562;7.508;2023-04-29T07:41:57;11.10;;;9.10;;
38117;SDS011;23928;47.562;7.508;2023-04-29T07:44:24;12.53;;;9.50;;
38117;SDS011;23928;47.562;7.508;2023-04-29T07:46:49;9.90;;;8.30;;
38117;SDS011;23928;47.562;7.508;2023-04-29T07:49:15;8.90;;;6.80;;
38117;SDS011;23928;47.562;7.508;2023-04-29T07:51:40;6.37;;;5.77;;
38117;SDS011;23928;47.562;7.508;2023-04-29T07:54:06;6.20;;;5.57;;
38117;SDS011;23928;47.562;7.508;2023-04-29T07:56:32;5.77;;;5.27;;
38117;SDS011;23928;47.562;7.508;2023-04-29T07:59:00;6.50;;;4.87;;
38117;SDS011;23928;47.562;7.508;2023-04-29T08:01:26;7.43;;;4.80;;
38117;SDS011;23928;47.562;7.508;2023-04-29T08:03:54;5.87;;;4.60;;
38117;SDS011;23928;47.562;7.508;2023-04-29T08:06:20;4.67;;;4.27;;
38117;SDS011;23928;47.562;7.508;2023-04-29T08:08:47;5.43;;;3.47;;
38117;SDS011;23928;47.562;7.508;2023-04-29T08:11:19;5.53;;;3.97;;
38117;SDS011;23928;47.562;7.508;2023-04-29T08:13:48;4.00;;;3.70;;
38117;SDS011;23928;47.562;7.508;2023-04-29T08:16:14;4.67;;;3.10;;
38117;SDS011;23928;47.562;7.508;2023-04-29T08:18:39;3.70;;;3.27;;
38117;SDS011;23928;47.562;7.508;2023-04-29T08:21:05;3.50;;;3.20;;
38117;SDS011;23928;47.562;7.508;2023-04-29T08:23:31;5.17;;;2.90;;
38117;SDS011;23928;47.562;7.508;2023-04-29T08:25:57;4.10;;;3.50;;
38117;SDS011;23928;47.562;7.508;2023-04-29T08:28:22;3.63;;;3.33;;
38117;SDS011;23928;47.562;7.508;2023-04-29T08:30:49;3.50;;;3.17;;
38117;SDS011;23928;47.562;7.508;2023-04-29T08:33:15;5.37;;;3.73;;
38117;SDS011;23928;47.562;7.508;2023-04-29T08:35:41;3.53;;;2.90;;
38117;SDS011;23928;47.562;7.508;2023-04-29T08:38:07;3.53;;;3.13;;
38117;SDS011;23928;47.562;7.508;2023-04-29T08:40:40;4.50;;;3.27;;
38117;SDS011;23928;47.562;7.508;2023-04-29T08:43:07;5.23;;;3.13;;
38117;SDS011;23928;47.562;7.508;2023-04-29T08:45:34;2.90;;;2.70;;
38117;SDS011;23928;47.562;7.508;2023-04-29T08:48:03;4.60;;;2.80;;
38117;SDS011;23928;47.562;7.508;2023-04-29T08:50:39;2.80;;;2.60;;
38117;SDS011;23928;47.562;7.508;2023-04-29T08:53:09;4.83;;;2.97;;
38117;SDS011;23928;47.562;7.508;2023-04-29T08:55:40;3.63;;;2.37;;
38117;SDS011;23928;47.562;7.508;2023-04-29T08:58:07;4.00;;;2.73;;
38117;SDS011;23928;47.562;7.508;2023-04-29T09:00:33;2.60;;;2.40;;
38117;SDS011;23928;47.562;7.508;2023-04-29T09:02:59;2.60;;;2.40;;
38117;SDS011;23928;47.562;7.508;2023-04-29T09:05:29;4.00;;;2.60;;
38117;SDS011;23928;47.562;7.508;2023-04-29T09:07:57;2.63;;;2.43;;
38117;SDS011;23928;47.562;7.508;2023-04-29T09:10:25;5.30;;;2.50;;
38117;SDS011;23928;47.562;7.508;2023-04-29T09:12:54;2.17;;;1.97;;
38117;SDS011;23928;47.562;7.508;2023-04-29T09:15:21;2.57;;;2.37;;
38117;SDS011;23928;47.562;7.508;2023-04-29T09:17:47;2.43;;;2.23;;
38117;SDS011;23928;47.562;7.508;2023-04-29T09:22:51;2.50;;;2.30;;
38117;SDS011;23928;47.562;7.508;2023-04-29T09:25:21;3.07;;;2.80;;
38117;SDS011;23928;47.562;7.508;2023-04-29T09:27:47;2.80;;;2.60;;
38117;SDS011;23928;47.562;7.508;2023-04-29T09:30:13;2.63;;;2.43;;
38117;SDS011;23928;47.562;7.508;2023-04-29T09:32:40;4.67;;;3.27;;
38117;SDS011;23928;47.562;7.508;2023-04-29T09:35:23;3.10;;;2.80;;
38117;SDS011;23928;47.562;7.508;2023-04-29T09:37:50;4.50;;;2.80;;
38117;SDS011;23928;47.562;7.508;2023-04-29T09:42:56;3.30;;;3.00;;
38117;SDS011;23928;47.562;7.508;2023-04-29T09:48:00;3.50;;;3.20;;
38117;SDS011;23928;47.562;7.508;2023-04-29T09:50:30;2.93;;;2.73;;
38117;SDS011;23928;47.562;7.508;2023-04-29T09:52:58;3.23;;;2.93;;
38117;SDS011;23928;47.562;7.508;2023-04-29T09:55:24;2.80;;;2.43;;
38117;SDS011;23928;47.562;7.508;2023-04-29T09:57:53;4.23;;;2.97;;
38117;SDS011;23928;47.562;7.508;2023-04-29T10:00:20;3.77;;;2.80;;
38117;SDS011;23928;47.562;7.508;2023-04-29T10:02:46;3.30;;;3.00;;
38117;SDS011;23928;47.562;7.508;2023-04-29T10:05:16;4.73;;;3.23;;
38117;SDS011;23928;47.562;7.508;2023-04-29T10:07:42;3.73;;;3.43;;
38117;SDS011;23928;47.562;7.508;2023-04-29T10:10:11;4.03;;;3.70;;
38117;SDS011;23928;47.562;7.508;2023-04-29T10:12:38;4.77;;;4.30;;
38117;SDS011;23928;47.562;7.508;2023-04-29T10:20:05;4.47;;;4.03;;
38117;SDS011;23928;47.562;7.508;2023-04-29T10:22:46;4.37;;;3.97;;
38117;SDS011;23928;47.562;7.508;2023-04-29T10:25:21;5.43;;;3.80;;
38117;SDS011;23928;47.562;7.508;2023-04-29T10:27:48;4.87;;;4.03;;
38117;SDS011;23928;47.562;7.508;2023-04-29T10:30:17;4.90;;;4.40;;
38117;SDS011;23928;47.562;7.508;2023-04-29T10:32:44;5.00;;;4.60;;
38117;SDS011;23928;47.562;7.508;2023-04-29T10:35:13;4.70;;;4.10;;
38117;SDS011;23928;47.562;7.508;2023-04-29T10:37:40;4.20;;;3.80;;
38117;SDS011;23928;47.562;7.508;2023-04-29T10:40:11;4.00;;;3.60;;
38117;SDS011;23928;47.562;7.508;2023-04-29T10:42:43;3.63;;;3.33;;
38117;SDS011;23928;47.562;7.508;2023-04-29T10:50:29;3.97;;;3.00;;
38117;SDS011;23928;47.562;7.508;2023-04-29T10:53:09;3.13;;;2.83;;
38117;SDS011;23928;47.562;7.508;2023-04-29T10:55:35;3.00;;;2.80;;
38117;SDS011;23928;47.562;7.508;2023-04-29T10:58:02;3.03;;;2.80;;
38117;SDS011;23928;47.562;7.508;2023-04-29T11:00:29;5.47;;;2.90;;
38117;SDS011;23928;47.562;7.508;2023-04-29T11:02:59;3.20;;;2.90;;
38117;SDS011;23928;47.562;7.508;2023-04-29T11:05:34;3.00;;;2.73;;
38117;SDS011;23928;47.562;7.508;2023-04-29T11:08:14;4.43;;;3.03;;
38117;SDS011;23928;47.562;7.508;2023-04-29T11:10:56;3.17;;;2.90;;
38117;SDS011;23928;47.562;7.508;2023-04-29T11:13:29;4.07;;;2.43;;
38117;SDS011;23928;47.562;7.508;2023-04-29T11:18:32;2.67;;;2.47;;
38117;SDS011;23928;47.562;7.508;2023-04-29T11:21:20;2.70;;;2.50;;
38117;SDS011;23928;47.562;7.508;2023-04-29T11:23:44;3.07;;;2.33;;
38117;SDS011;23928;47.562;7.508;2023-04-29T11:26:11;4.23;;;2.70;;
38117;SDS011;23928;47.562;7.508;2023-04-29T11:28:37;2.63;;;2.00;;
38117;SDS011;23928;47.562;7.508;2023-04-29T11:31:06;4.53;;;3.03;;
38117;SDS011;23928;47.562;7.508;2023-04-29T11:33:31;3.30;;;2.30;;
38117;SDS011;23928;47.562;7.508;2023-04-29T11:35:58;4.93;;;4.43;;
38117;SDS011;23928;47.562;7.508;2023-04-29T11:38:27;5.57;;;5.07;;
38117;SDS011;23928;47.562;7.508;2023-04-29T11:40:58;5.20;;;4.70;;
38117;SDS011;23928;47.562;7.508;2023-04-29T11:43:24;5.47;;;4.50;;
38117;SDS011;23928;47.562;7.508;2023-04-29T11:45:50;4.33;;;3.97;;
38117;SDS011;23928;47.562;7.508;2023-04-29T11:50:46;5.00;;;4.50;;
38117;SDS011;23928;47.562;7.508;2023-04-29T11:53:13;4.47;;;4.07;;
38117;SDS011;23928;47.562;7.508;2023-04-29T11:55:42;5.77;;;4.10;;
38117;SDS011;23928;47.562;7.508;2023-04-29T11:58:09;4.27;;;3.87;;
38117;SDS011;23928;47.562;7.508;2023-04-29T12:00:34;5.17;;;3.83;;
38117;SDS011;23928;47.562;7.508;2023-04-29T12:03:00;5.80;;;4.23;;
38117;SDS011;23928;47.562;7.508;2023-04-29T12:05:31;5.80;;;4.03;;
38117;SDS011;23928;47.562;7.508;2023-04-29T12:07:56;4.27;;;3.80;;
38117;SDS011;23928;47.562;7.508;2023-04-29T12:10:22;4.43;;;4.03;;
38117;SDS011;23928;47.562;7.508;2023-04-29T12:12:47;4.07;;;3.67;;
38117;SDS011;23928;47.562;7.508;2023-04-29T12:15:13;4.83;;;3.23;;
38117;SDS011;23928;47.562;7.508;2023-04-29T12:17:39;3.97;;;3.53;;
38117;SDS011;23928;47.562;7.508;2023-04-29T12:20:06;3.53;;;3.27;;
38117;SDS011;23928;47.562;7.508;2023-04-29T12:22:35;5.97;;;4.10;;
38117;SDS011;23928;47.562;7.508;2023-04-29T12:25:05;4.70;;;3.67;;
38117;SDS011;23928;47.562;7.508;2023-04-29T12:27:31;6.03;;;3.80;;
38117;SDS011;23928;47.562;7.508;2023-04-29T12:30:00;4.70;;;3.07;;
38117;SDS011;23928;47.562;7.508;2023-04-29T12:32:26;5.13;;;3.60;;
38117;SDS011;23928;47.562;7.508;2023-04-29T12:34:52;3.50;;;3.20;;
38117;SDS011;23928;47.562;7.508;2023-04-29T12:37:17;4.03;;;3.30;;
38117;SDS011;23928;47.562;7.508;2023-04-29T12:39:43;3.20;;;2.90;;
38117;SDS011;23928;47.562;7.508;2023-04-29T12:42:15;2.70;;;2.50;;
38117;SDS011;23928;47.562;7.508;2023-04-29T12:44:43;3.17;;;2.87;;
38117;SDS011;23928;47.562;7.508;2023-04-29T12:47:11;4.30;;;2.80;;
38117;SDS011;23928;47.562;7.508;2023-04-29T12:49:39;3.40;;;3.10;;
38117;SDS011;23928;47.562;7.508;2023-04-29T12:52:09;5.37;;;3.17;;
38117;SDS011;23928;47.562;7.508;2023-04-29T12:54:38;4.03;;;2.73;;
38117;SDS011;23928;47.562;7.508;2023-04-29T12:57:10;4.30;;;3.20;;
38117;SDS011;23928;47.562;7.508;2023-04-29T12:59:36;2.87;;;2.50;;
38117;SDS011;23928;47.562;7.508;2023-04-29T13:02:02;2.83;;;2.53;;
38117;SDS011;23928;47.562;7.508;2023-04-29T13:04:28;3.93;;;2.33;;
38117;SDS011;23928;47.562;7.508;2023-04-29T13:06:53;3.93;;;2.50;;
38117;SDS011;23928;47.562;7.508;2023-04-29T13:09:24;3.60;;;3.30;;
38117;SDS011;23928;47.562;7.508;2023-04-29T13:11:50;3.83;;;3.03;;
38117;SDS011;23928;47.562;7.508;2023-04-29T13:14:16;3.17;;;2.90;;
38117;SDS011;23928;47.562;7.508;2023-04-29T13:16:42;2.87;;;2.57;;
38117;SDS011;23928;47.562;7.508;2023-04-29T13:19:09;3.50;;;2.90;;
38117;SDS011;23928;47.562;7.508;2023-04-29T13:21:34;3.00;;;2.70;;
38117;SDS011;23928;47.562;7.508;2023-04-29T13:24:00;3.93;;;2.90;;
38117;SDS011;23928;47.562;7.508;2023-04-29T13:26:26;4.37;;;3.03;;
38117;SDS011;23928;47.562;7.508;2023-04-29T13:28:51;3.47;;;2.90;;
38117;SDS011;23928;47.562;7.508;2023-04-29T13:31:17;3.47;;;2.57;;
38117;SDS011;23928;47.562;7.508;2023-04-29T13:33:43;3.57;;;3.17;;
38117;SDS011;23928;47.562;7.508;2023-04-29T13:36:08;3.67;;;2.80;;
38117;SDS011;23928;47.562;7.508;2023-04-29T13:38:34;2.93;;;2.63;;
38117;SDS011;23928;47.562;7.508;2023-04-29T13:41:00;3.30;;;3.00;;
38117;SDS011;23928;47.562;7.508;2023-04-29T13:43:25;3.17;;;2.77;;
38117;SDS011;23928;47.562;7.508;2023-04-29T13:45:51;26.53;;;10.57;;
38117;SDS011;23928;47.562;7.508;2023-04-29T13:48:16;3.77;;;3.00;;
38117;SDS011;23928;47.562;7.508;2023-04-29T13:50:43;8.83;;;4.40;;
38117;SDS011;23928;47.562;7.508;2023-04-29T13:53:09;4.40;;;3.60;;
38117;SDS011;23928;47.562;7.508;2023-04-29T13:55:35;5.73;;;3.03;;
38117;SDS011;23928;47.562;7.508;2023-04-29T13:58:00;3.73;;;2.73;;
38117;SDS011;23928;47.562;7.508;2023-04-29T14:00:26;3.60;;;3.17;;
38117;SDS011;23928;47.562;7.508;2023-04-29T14:02:53;3.10;;;2.90;;
38117;SDS011;23928;47.562;7.508;2023-04-29T14:05:19;4.07;;;2.77;;
38117;SDS011;23928;47.562;7.508;2023-04-29T14:07:44;3.17;;;2.87;;
38117;SDS011;23928;47.562;7.508;2023-04-29T14:10:10;4.33;;;2.70;;
38117;SDS011;23928;47.562;7.508;2023-04-29T14:12:36;3.40;;;3.10;;
38117;SDS011;23928;47.562;7.508;2023-04-29T14:15:01;4.10;;;3.30;;
38117;SDS011;23928;47.562;7.508;2023-04-29T14:17:27;3.77;;;3.03;;
38117;SDS011;23928;47.562;7.508;2023-04-29T14:19:53;4.80;;;3.10;;
38117;SDS011;23928;47.562;7.508;2023-04-29T14:22:18;4.77;;;2.70;;
38117;SDS011;23928;47.562;7.508;2023-04-29T14:24:45;3.40;;;2.70;;
38117;SDS011;23928;47.562;7.508;2023-04-29T14:27:10;3.40;;;3.10;;
38117;SDS011;23928;47.562;7.508;2023-04-29T14:29:36;3.63;;;3.20;;
38117;SDS011;23928;47.562;7.508;2023-04-29T14:32:02;3.37;;;3.07;;
38117;SDS011;23928;47.562;7.508;2023-04-29T14:34:27;5.07;;;2.90;;
38117;SDS011;23928;47.562;7.508;2023-04-29T14:36:53;4.90;;;3.13;;
38117;SDS011;23928;47.562;7.508;2023-04-29T14:39:19;3.00;;;2.70;;
38117;SDS011;23928;47.562;7.508;2023-04-29T14:41:44;3.10;;;2.60;;
38117;SDS011;23928;47.562;7.508;2023-04-29T14:44:11;3.27;;;2.60;;
38117;SDS011;23928;47.562;7.508;2023-04-29T14:46:36;4.10;;;2.90;;
38117;SDS011;23928;47.562;7.508;2023-04-29T14:49:02;4.03;;;2.93;;
38117;SDS011;23928;47.562;7.508;2023-04-29T14:51:28;3.60;;;3.30;;
38117;SDS011;23928;47.562;7.508;2023-04-29T14:53:55;3.90;;;3.13;;
38117;SDS011;23928;47.562;7.508;2023-04-29T14:56:20;3.60;;;3.30;;
38117;SDS011;23928;47.562;7.508;2023-04-29T14:58:46;4.57;;;3.00;;
38117;SDS011;23928;47.562;7.508;2023-04-29T15:01:11;4.27;;;3.10;;
38117;SDS011;23928;47.562;7.508;2023-04-29T15:03:37;3.50;;;2.93;;
38117;SDS011;23928;47.562;7.508;2023-04-29T15:06:03;3.00;;;2.80;;
38117;SDS011;23928;47.562;7.508;2023-04-29T15:08:29;3.67;;;3.30;;
38117;SDS011;23928;47.562;7.508;2023-04-29T15:10:55;6.10;;;3.10;;
38117;SDS011;23928;47.562;7.508;2023-04-29T15:13:21;3.97;;;3.00;;
38117;SDS011;23928;47.562;7.508;2023-04-29T15:15:47;4.00;;;3.00;;